Terminal Aerodrome Forecast
Issued by NWS

Home | Current Version | Previous Version | Text Only | Print | Product List | Glossary On
Versions: 1 2 3 4 5 6 7 8 9 10 11 12 13 14 15 16 17
000
FTUS46 KSTO 210526
TAFSAC
TAF
KSAC 210526Z 2106/2206 17020G28KT P6SM -RA SCT015 OVC035
     FM211400 18015G22KT P6SM -SHRA OVC025
     FM212000 20014G20KT 4SM -SHRA OVC025=

USA.gov is the U.S. government's official web portal to all federal, state and local government web resources and services.